Kelly, Kansas
Current Conditions -  °F | °C
As of 3:53 PM on Sunday 25 Jan 2015 (Local Time) from KFNB Reporting Station
Overcast Overcast  
Wind Chill: 33°   Ceiling: 2400
Heat Index: 40°   Visibility: 10mi
Dew Point: 31°   Wind: 13mph
Humidity: 70%   Direction: 360°N
Pressure: 30.02"   Gusts: 20mph
Location:  39.8497°N, 96.0411°W
Report Text: KFNB 252153Z AUTO 36011G17KT 10SM OVC024 04/M01 A3002 RMK AO2 SLP170 T00441006
Loading
Personal Weather Stations






























Interactive Weather Map New forecast layout! Learn more

10-Day Weather Forecast

Advertisements
Track Severe Weather on mobile